Time;durP1;ratioP1;P1;durP2;ratioP2;P2;SDS_P1;SDS_P2;PMS_P1;PMS_P2;Temp;Humidity;BMP_temperature;BMP_pressure;BME280_temperature;BME280_humidity;BME280_pressure;Samples;Min_cycle;Max_cycle;Signal;HPM_P1;HPM_P2
2024/01/19 00:00:02;;;;;;;14.85;6.20;;;3.30;69.20;;;;;;2265230;55;20978;-66
2024/01/19 00:02:28;;;;;;;12.45;6.25;;;3.30;69.20;;;;;;2264516;55;21499;-65
2024/01/19 00:04:55;;;;;;;14.13;6.87;;;3.30;69.20;;;;;;2493646;54;20991;-66
2024/01/19 00:07:21;;;;;;;15.27;6.97;;;3.30;69.20;;;;;;2264735;55;21440;-66
2024/01/19 00:09:47;;;;;;;14.15;7.37;;;3.20;69.10;;;;;;2492805;54;20999;-66
2024/01/19 00:12:14;;;;;;;13.77;7.07;;;3.20;69.10;;;;;;2264462;55;21041;-66
2024/01/19 00:14:40;;;;;;;12.23;6.15;;;3.20;69.10;;;;;;2257412;55;20980;-65
2024/01/19 00:17:07;;;;;;;14.85;6.57;;;3.20;69.10;;;;;;2263358;55;20947;-66
2024/01/19 00:19:33;;;;;;;13.43;6.68;;;3.10;68.90;;;;;;2266350;55;21867;-66
2024/01/19 00:22:00;;;;;;;12.93;6.60;;;3.10;68.90;;;;;;2264370;55;21084;-66
2024/01/19 00:24:26;;;;;;;13.52;7.07;;;3.10;68.90;;;;;;2256661;56;21002;-66
2024/01/19 00:26:54;;;;;;;16.62;7.00;;;3.00;68.80;;;;;;2264599;55;20986;-66
2024/01/19 00:29:20;;;;;;;14.60;6.62;;;3.00;68.80;;;;;;2264931;55;20988;-66
2024/01/19 00:31:48;;;;;;;13.55;6.72;;;3.00;68.90;;;;;;2264957;55;21038;-66
2024/01/19 00:34:14;;;;;;;16.08;7.60;;;3.00;68.90;;;;;;2493968;54;21050;-66
2024/01/19 00:36:40;;;;;;;14.43;6.97;;;2.90;68.80;;;;;;2264471;55;21019;-66
2024/01/19 00:39:07;;;;;;;14.75;7.53;;;2.90;68.80;;;;;;2264876;55;21713;-65
2024/01/19 00:41:33;;;;;;;17.95;8.45;;;2.90;68.90;;;;;;2263791;55;20962;-66
2024/01/19 00:44:00;;;;;;;15.40;7.70;;;2.80;68.80;;;;;;2265265;55;20954;-65
2024/01/19 00:46:27;;;;;;;16.30;7.45;;;2.80;68.80;;;;;;2264710;55;20947;-65
2024/01/19 00:48:54;;;;;;;15.90;7.87;;;2.80;68.80;;;;;;2493520;54;21018;-65
2024/01/19 00:51:21;;;;;;;16.65;7.35;;;2.80;68.80;;;;;;2264698;55;21005;-65
2024/01/19 00:53:47;;;;;;;13.50;6.75;;;2.70;68.70;;;;;;2264010;55;21649;-65
2024/01/19 00:56:15;;;;;;;18.48;8.57;;;2.70;68.70;;;;;;2264358;55;21034;-66
2024/01/19 00:58:44;;;;;;;17.98;8.88;;;2.70;68.70;;;;;;2265379;55;20999;-65
2024/01/19 01:01:12;;;;;;;16.37;8.20;;;2.70;68.70;;;;;;2264944;55;20991;-65
2024/01/19 01:03:39;;;;;;;15.52;7.60;;;2.60;68.60;;;;;;2264266;55;20982;-65
2024/01/19 01:06:05;;;;;;;16.05;6.80;;;2.60;68.70;;;;;;2264687;55;20987;-65
2024/01/19 01:08:34;;;;;;;13.43;6.62;;;2.60;68.70;;;;;;2264253;55;21043;-66
2024/01/19 01:11:00;;;;;;;17.83;7.45;;;2.60;68.60;;;;;;2264913;55;21007;-65
2024/01/19 01:13:27;;;;;;;17.90;8.68;;;2.50;68.50;;;;;;2264743;55;21270;-65
2024/01/19 01:16:11;;;;;;;17.90;8.73;;;2.50;68.60;;;;;;2264574;55;22186;-66
2024/01/19 01:18:37;;;;;;;18.15;8.68;;;2.50;68.50;;;;;;2263011;55;21578;-66
2024/01/19 01:21:03;;;;;;;16.27;7.62;;;2.40;68.60;;;;;;2264148;55;21443;-66
2024/01/19 01:23:32;;;;;;;14.80;7.85;;;2.40;68.80;;;;;;2264141;55;21053;-66
2024/01/19 01:25:59;;;;;;;15.57;7.78;;;2.40;68.80;;;;;;2265124;55;21305;-65
2024/01/19 01:28:26;;;;;;;15.98;7.93;;;2.40;68.80;;;;;;2263165;55;20995;-65
2024/01/19 01:30:53;;;;;;;16.30;7.90;;;2.40;68.80;;;;;;2264882;55;20962;-65
2024/01/19 01:33:20;;;;;;;18.58;8.48;;;2.40;68.80;;;;;;2482005;54;20946;-65
2024/01/19 01:35:49;;;;;;;15.90;7.80;;;2.30;68.80;;;;;;2265630;55;21538;-66
2024/01/19 01:38:16;;;;;;;17.67;8.65;;;2.30;68.80;;;;;;2261439;55;21151;-65
2024/01/19 01:40:46;;;;;;;14.87;7.45;;;2.30;68.90;;;;;;2487608;54;21432;-65
2024/01/19 01:43:19;;;;;;;13.07;5.87;;;2.30;69.00;;;;;;2264384;55;20962;-65
2024/01/19 01:45:45;;;;;;;14.75;7.07;;;2.30;69.00;;;;;;2264199;55;20954;-66
2024/01/19 01:48:11;;;;;;;14.65;7.62;;;2.30;68.90;;;;;;2264253;55;21049;-66
2024/01/19 01:50:38;;;;;;;19.83;8.95;;;2.20;68.90;;;;;;2259346;55;20940;-65
2024/01/19 01:53:09;;;;;;;17.98;8.18;;;2.20;68.90;;;;;;2261686;55;20962;-65
2024/01/19 01:55:35;;;;;;;19.25;9.55;;;2.20;69.00;;;;;;2263926;55;21115;-66
2024/01/19 01:58:02;;;;;;;15.65;7.35;;;2.20;69.10;;;;;;2265033;55;21512;-65
2024/01/19 02:00:29;;;;;;;17.62;8.30;;;2.20;69.10;;;;;;2494033;54;21520;-65
2024/01/19 02:02:56;;;;;;;18.45;9.13;;;2.20;69.20;;;;;;2493510;54;21775;-65
2024/01/19 02:05:22;;;;;;;17.10;7.87;;;2.20;69.20;;;;;;2266146;55;20978;-66
2024/01/19 02:07:49;;;;;;;16.48;7.70;;;2.20;69.30;;;;;;2493926;54;21511;-65
2024/01/19 02:10:15;;;;;;;15.50;8.10;;;2.20;69.40;;;;;;2264371;55;21018;-65
2024/01/19 02:12:41;;;;;;;18.17;8.27;;;2.20;69.40;;;;;;2264250;55;21006;-65
2024/01/19 02:15:18;;;;;;;14.57;7.90;;;2.20;69.40;;;;;;2494094;54;21296;-65
2024/01/19 02:17:45;;;;;;;15.85;7.37;;;2.20;69.50;;;;;;2264371;55;22015;-65
2024/01/19 02:20:14;;;;;;;15.15;8.00;;;2.20;69.50;;;;;;2270734;55;20984;-66
2024/01/19 02:22:40;;;;;;;18.83;8.48;;;2.20;69.60;;;;;;2253359;56;20946;-65
2024/01/19 02:25:07;;;;;;;14.98;7.45;;;2.20;69.70;;;;;;2266641;55;20984;-65
2024/01/19 02:27:33;;;;;;;16.00;7.12;;;2.20;69.80;;;;;;2264840;55;21002;-66
2024/01/19 02:30:00;;;;;;;15.15;7.68;;;2.20;69.80;;;;;;2264695;55;20934;-65
2024/01/19 02:32:27;;;;;;;21.80;8.90;;;2.20;69.80;;;;;;2493565;54;21014;-66
2024/01/19 02:34:53;;;;;;;18.35;8.52;;;2.30;69.90;;;;;;2264306;55;20966;-66
2024/01/19 02:37:20;;;;;;;15.45;7.93;;;2.30;70.00;;;;;;2494216;54;21018;-65
2024/01/19 02:39:46;;;;;;;15.50;7.65;;;2.30;70.10;;;;;;2493140;54;20990;-65
2024/01/19 02:42:13;;;;;;;18.05;8.20;;;2.30;70.10;;;;;;2492849;54;21467;-66
2024/01/19 02:44:39;;;;;;;19.42;8.77;;;2.30;70.10;;;;;;2264777;55;20982;-66
2024/01/19 02:47:05;;;;;;;16.52;7.70;;;2.30;70.10;;;;;;2264011;55;21907;-66
2024/01/19 02:49:32;;;;;;;19.80;8.30;;;2.40;70.30;;;;;;2492692;54;21007;-65
2024/01/19 02:51:58;;;;;;;19.70;9.23;;;2.40;70.30;;;;;;2264648;55;20974;-65
2024/01/19 02:54:25;;;;;;;20.83;9.70;;;2.40;70.30;;;;;;2264466;55;20946;-65
2024/01/19 02:56:53;;;;;;;16.12;7.50;;;2.40;70.40;;;;;;2264048;55;21018;-66
2024/01/19 02:59:19;;;;;;;16.62;8.30;;;2.40;70.40;;;;;;2264701;55;21960;-65
2024/01/19 03:01:46;;;;;;;14.52;7.35;;;2.50;70.50;;;;;;2492823;54;21043;-66
2024/01/19 03:04:13;;;;;;;18.00;8.52;;;2.50;70.50;;;;;;2264965;55;20959;-66
2024/01/19 03:06:39;;;;;;;18.02;8.38;;;2.50;70.50;;;;;;2492869;54;21026;-66
2024/01/19 03:09:06;;;;;;;19.45;8.05;;;2.60;70.60;;;;;;2264910;55;21109;-66
2024/01/19 03:11:33;;;;;;;21.40;8.85;;;2.60;70.50;;;;;;2264513;55;21084;-66
2024/01/19 03:13:59;;;;;;;19.12;8.73;;;2.60;70.50;;;;;;2264863;55;20954;-66
2024/01/19 03:16:25;;;;;;;15.60;7.90;;;2.60;70.50;;;;;;2262638;55;21033;-66
2024/01/19 03:18:55;;;;;;;18.42;8.30;;;2.60;70.50;;;;;;2264546;55;20954;-66
2024/01/19 03:21:21;;;;;;;15.05;8.18;;;2.60;70.40;;;;;;2264696;55;21011;-65
2024/01/19 03:23:48;;;;;;;15.25;7.93;;;2.70;70.70;;;;;;2264003;55;20986;-65
2024/01/19 03:26:14;;;;;;;20.48;8.60;;;2.70;70.50;;;;;;2264595;55;21002;-66
2024/01/19 03:28:40;;;;;;;18.52;9.30;;;2.70;70.40;;;;;;2264143;55;20979;-66
2024/01/19 03:31:07;;;;;;;17.23;8.80;;;2.70;70.40;;;;;;2264796;55;20963;-65
2024/01/19 03:33:33;;;;;;;16.62;8.30;;;2.70;70.40;;;;;;2263971;55;21282;-66
2024/01/19 03:36:00;;;;;;;20.52;9.38;;;2.70;70.50;;;;;;2264189;55;21037;-65
2024/01/19 03:38:27;;;;;;;19.25;8.93;;;2.80;70.40;;;;;;2493832;54;21926;-66
2024/01/19 03:40:53;;;;;;;20.10;7.62;;;2.80;70.40;;;;;;2264490;55;21188;-66
2024/01/19 03:43:19;;;;;;;17.35;8.70;;;2.80;70.40;;;;;;2264444;55;20942;-66
2024/01/19 03:45:46;;;;;;;12.00;6.57;;;2.80;70.20;;;;;;2263545;55;21760;-65
2024/01/19 03:48:12;;;;;;;14.02;7.15;;;2.80;70.20;;;;;;2493926;54;21017;-66
2024/01/19 03:50:42;;;;;;;16.75;7.68;;;2.80;70.10;;;;;;2263278;55;20996;-66
2024/01/19 03:53:08;;;;;;;11.35;6.55;;;2.80;70.10;;;;;;2453912;55;20970;-66
2024/01/19 03:55:34;;;;;;;17.80;8.30;;;2.80;70.00;;;;;;2263970;55;20935;-66
2024/01/19 03:58:00;;;;;;;19.02;8.40;;;2.80;69.90;;;;;;2264746;55;21073;-66
2024/01/19 04:00:27;;;;;;;14.80;8.13;;;2.80;69.90;;;;;;2493013;54;20931;-66
2024/01/19 04:02:54;;;;;;;17.02;8.30;;;2.80;69.90;;;;;;2263824;55;21344;-65
2024/01/19 04:05:20;;;;;;;17.90;7.28;;;2.80;69.80;;;;;;2264908;55;20990;-66
2024/01/19 04:07:46;;;;;;;13.73;6.55;;;2.80;69.80;;;;;;2268216;55;21859;-66
2024/01/19 04:10:13;;;;;;;14.93;6.93;;;2.80;69.70;;;;;;2481409;55;20962;-65
2024/01/19 04:12:39;;;;;;;13.10;6.37;;;2.80;69.50;;;;;;2263458;55;21735;-66
2024/01/19 04:15:06;;;;;;;18.15;7.95;;;2.80;69.40;;;;;;2482559;54;21122;-66
2024/01/19 04:17:32;;;;;;;18.58;8.55;;;2.70;69.20;;;;;;2254417;56;21020;-66
2024/01/19 04:19:59;;;;;;;20.48;7.85;;;2.70;69.20;;;;;;2263727;55;21832;-65
2024/01/19 04:22:25;;;;;;;14.45;7.87;;;2.70;69.30;;;;;;2264019;55;20969;-67
2024/01/19 04:24:52;;;;;;;14.20;5.90;;;2.70;69.40;;;;;;2479982;54;21004;-66
2024/01/19 04:27:23;;;;;;;11.50;6.03;;;2.70;69.30;;;;;;2494868;54;21014;-66
2024/01/19 04:29:51;;;;;;;14.43;7.47;;;2.70;69.30;;;;;;2493379;54;20970;-65
2024/01/19 04:32:18;;;;;;;16.42;7.30;;;2.60;69.10;;;;;;2264612;55;20962;-65
2024/01/19 04:34:47;;;;;;;18.65;7.35;;;2.60;69.20;;;;;;2264704;55;20927;-66
2024/01/19 04:37:14;;;;;;;13.85;6.53;;;2.60;69.20;;;;;;2263830;55;21799;-65
2024/01/19 04:39:40;;;;;;;15.70;5.93;;;2.60;69.20;;;;;;2253840;56;20961;-65
2024/01/19 04:42:07;;;;;;;14.02;6.30;;;2.60;69.20;;;;;;2492909;54;21607;-66
2024/01/19 04:44:34;;;;;;;13.82;5.72;;;2.60;69.10;;;;;;2264561;55;21026;-65
2024/01/19 04:47:00;;;;;;;16.87;7.43;;;2.50;68.90;;;;;;2265251;55;20992;-66
2024/01/19 04:49:27;;;;;;;17.45;7.93;;;2.50;69.20;;;;;;2255142;56;21008;-65
2024/01/19 04:51:53;;;;;;;13.80;7.37;;;2.50;68.90;;;;;;2262899;55;21419;-66
2024/01/19 04:54:19;;;;;;;15.70;6.93;;;2.50;69.10;;;;;;2264459;55;20922;-66
2024/01/19 04:56:46;;;;;;;20.35;7.85;;;2.50;69.20;;;;;;2493494;54;20968;-65
2024/01/19 04:59:13;;;;;;;14.20;6.85;;;2.50;69.20;;;;;;2265267;55;21038;-65
2024/01/19 05:01:40;;;;;;;14.27;6.07;;;2.40;69.20;;;;;;2263815;55;21036;-65
2024/01/19 05:04:06;;;;;;;17.87;7.57;;;2.40;69.30;;;;;;2264884;55;21070;-66
2024/01/19 05:06:32;;;;;;;17.23;8.00;;;2.40;69.30;;;;;;2257069;56;21009;-65
2024/01/19 05:09:02;;;;;;;16.77;7.28;;;2.40;69.40;;;;;;2258510;55;21009;-65
2024/01/19 05:11:31;;;;;;;17.83;8.15;;;2.40;69.50;;;;;;2491992;54;20951;-66
2024/01/19 05:13:57;;;;;;;13.00;6.72;;;2.40;69.50;;;;;;2493063;54;20966;-66
2024/01/19 05:16:24;;;;;;;12.73;6.55;;;2.40;69.60;;;;;;2264605;55;21358;-65
2024/01/19 05:18:51;;;;;;;15.65;7.62;;;2.40;69.60;;;;;;2492687;54;21027;-66
2024/01/19 05:21:17;;;;;;;16.33;7.93;;;2.40;69.60;;;;;;2494066;54;21830;-65
2024/01/19 05:23:43;;;;;;;17.00;8.02;;;2.40;69.60;;;;;;2263095;55;21009;-66
2024/01/19 05:26:10;;;;;;;14.55;7.55;;;2.40;69.70;;;;;;2258159;55;20963;-65
2024/01/19 05:28:36;;;;;;;20.58;8.75;;;2.50;69.90;;;;;;2493487;54;21034;-65
2024/01/19 05:31:03;;;;;;;19.33;8.70;;;2.50;69.90;;;;;;2264698;55;21023;-65
2024/01/19 05:33:32;;;;;;;18.23;8.07;;;2.50;69.90;;;;;;2264422;55;21014;-65
2024/01/19 05:36:00;;;;;;;17.40;7.20;;;2.50;69.90;;;;;;2264313;55;21022;-66
2024/01/19 05:38:27;;;;;;;13.65;6.60;;;2.50;69.90;;;;;;2264781;55;20958;-65
2024/01/19 05:40:53;;;;;;;15.75;8.38;;;2.50;69.80;;;;;;2492950;54;20955;-65
2024/01/19 05:43:19;;;;;;;16.98;7.82;;;2.50;69.80;;;;;;2264782;55;21012;-66
2024/01/19 05:45:46;;;;;;;17.48;9.20;;;2.50;69.80;;;;;;2483456;54;21291;-65
2024/01/19 05:48:12;;;;;;;20.65;9.93;;;2.50;69.80;;;;;;2264441;55;21017;-66
2024/01/19 05:50:38;;;;;;;17.70;8.50;;;2.50;69.80;;;;;;2264214;55;21035;-65
2024/01/19 05:53:08;;;;;;;22.23;10.20;;;2.50;69.80;;;;;;2266270;55;20978;-65
2024/01/19 05:55:34;;;;;;;20.77;9.48;;;2.50;69.70;;;;;;2254295;55;20950;-66
2024/01/19 05:58:02;;;;;;;16.83;8.57;;;2.50;69.60;;;;;;2263796;55;21859;-66
2024/01/19 06:00:29;;;;;;;16.35;7.65;;;2.50;69.60;;;;;;2483491;54;20948;-65
2024/01/19 06:02:55;;;;;;;16.77;8.10;;;2.50;69.60;;;;;;2261772;55;21085;-66
2024/01/19 06:05:21;;;;;;;16.90;8.02;;;2.50;69.60;;;;;;2493631;54;21460;-66
2024/01/19 06:07:48;;;;;;;26.35;10.30;;;2.50;69.60;;;;;;2263260;55;20938;-65
2024/01/19 06:10:14;;;;;;;24.52;10.35;;;2.50;69.60;;;;;;2494197;54;20951;-66
2024/01/19 06:12:40;;;;;;;22.55;9.38;;;2.50;69.60;;;;;;2492543;54;21574;-65
2024/01/19 06:15:07;;;;;;;20.50;8.85;;;2.50;69.60;;;;;;2493842;54;20967;-66
2024/01/19 06:17:33;;;;;;;17.02;7.87;;;2.50;69.70;;;;;;2263818;55;20974;-66
2024/01/19 06:20:00;;;;;;;18.75;8.65;;;2.50;69.70;;;;;;2494100;54;21079;-66
2024/01/19 06:22:26;;;;;;;16.12;7.32;;;2.50;69.80;;;;;;2494359;54;20942;-66
2024/01/19 06:24:52;;;;;;;14.90;7.03;;;2.50;69.80;;;;;;2264358;55;22019;-65
2024/01/19 06:27:29;;;;;;;19.15;9.02;;;2.50;69.90;;;;;;2264844;56;20957;-65
2024/01/19 06:29:55;;;;;;;17.05;7.85;;;2.50;70.00;;;;;;2493160;54;20998;-65
2024/01/19 06:32:22;;;;;;;25.33;11.20;;;2.50;70.00;;;;;;2494497;54;20990;-66
2024/01/19 06:34:48;;;;;;;22.90;11.57;;;2.50;70.00;;;;;;2264040;55;21718;-66
2024/01/19 06:37:14;;;;;;;23.60;10.07;;;2.60;70.20;;;;;;2480823;54;20950;-66
2024/01/19 06:39:40;;;;;;;21.33;10.95;;;2.60;70.20;;;;;;2263726;55;21852;-66
2024/01/19 06:42:07;;;;;;;21.45;11.15;;;2.60;70.90;;;;;;2257028;56;20968;-65
2024/01/19 06:44:36;;;;;;;21.50;9.80;;;2.60;70.20;;;;;;2265302;55;21006;-66
2024/01/19 06:47:02;;;;;;;24.35;11.23;;;2.60;70.20;;;;;;2494386;54;21450;-66
2024/01/19 06:49:29;;;;;;;22.08;10.70;;;2.60;70.20;;;;;;2265228;55;20946;-66
2024/01/19 06:51:55;;;;;;;18.73;9.90;;;2.60;70.10;;;;;;2494034;54;20942;-66
2024/01/19 06:54:21;;;;;;;19.30;9.18;;;2.60;70.10;;;;;;2264838;55;20987;-66
2024/01/19 06:56:48;;;;;;;19.48;9.68;;;2.60;70.10;;;;;;2264508;55;20967;-66
2024/01/19 06:59:17;;;;;;;21.48;12.30;;;2.60;70.10;;;;;;2485523;54;20913;-66
2024/01/19 07:01:49;;;;;;;28.55;18.33;;;2.70;70.30;;;;;;2489645;54;21453;-66
2024/01/19 07:04:15;;;;;;;25.20;15.55;;;2.70;70.30;;;;;;2481599;54;20960;-66
2024/01/19 07:06:41;;;;;;;20.20;11.52;;;2.70;70.30;;;;;;2263396;55;21022;-66
2024/01/19 07:09:08;;;;;;;20.20;10.88;;;2.70;70.40;;;;;;2264804;55;21470;-65
2024/01/19 07:11:37;;;;;;;18.23;10.23;;;2.70;70.40;;;;;;2493789;54;21255;-66
2024/01/19 07:14:04;;;;;;;16.48;8.98;;;2.70;70.40;;;;;;2493777;54;20998;-66
2024/01/19 07:16:30;;;;;;;19.55;10.00;;;2.70;70.50;;;;;;2494428;54;20951;-66
2024/01/19 07:18:57;;;;;;;18.67;8.50;;;2.70;70.50;;;;;;2263680;55;20962;-65
2024/01/19 07:21:23;;;;;;;21.15;10.23;;;2.80;70.60;;;;;;2494353;54;21087;-66
2024/01/19 07:23:49;;;;;;;20.12;10.00;;;2.80;70.70;;;;;;2235587;57;21374;-65
2024/01/19 07:26:19;;;;;;;20.73;9.85;;;2.80;70.70;;;;;;2264617;55;20959;-66
2024/01/19 07:28:46;;;;;;;21.80;9.88;;;2.80;70.70;;;;;;2264249;55;21494;-66
2024/01/19 07:31:12;;;;;;;19.48;10.45;;;2.80;70.70;;;;;;2264658;55;21054;-65
2024/01/19 07:33:39;;;;;;;22.05;11.10;;;2.90;70.80;;;;;;2493135;54;21003;-65
2024/01/19 07:36:06;;;;;;;18.75;9.35;;;2.90;70.90;;;;;;2264882;55;20938;-65
2024/01/19 07:38:34;;;;;;;17.45;9.32;;;2.90;70.90;;;;;;2264772;55;21002;-65
2024/01/19 07:41:01;;;;;;;17.17;9.13;;;2.90;70.90;;;;;;2493610;54;21738;-65
2024/01/19 07:43:27;;;;;;;17.40;9.60;;;3.00;71.00;;;;;;2493725;54;20970;-66
2024/01/19 07:45:54;;;;;;;18.58;9.90;;;3.00;70.90;;;;;;2263871;55;22322;-66
2024/01/19 07:48:20;;;;;;;18.98;9.35;;;3.00;70.90;;;;;;2494346;54;21492;-66
2024/01/19 07:50:46;;;;;;;21.75;10.15;;;3.00;70.80;;;;;;2493010;54;20947;-66
2024/01/19 07:53:13;;;;;;;16.62;9.18;;;3.10;70.90;;;;;;2493682;54;21011;-66
2024/01/19 07:55:39;;;;;;;17.02;8.85;;;3.10;70.90;;;;;;2493411;54;21070;-66
2024/01/19 07:58:06;;;;;;;17.80;9.45;;;3.10;70.90;;;;;;2494283;54;21043;-66
2024/01/19 08:00:32;;;;;;;19.58;8.98;;;3.10;70.90;;;;;;2494198;54;21547;-66
2024/01/19 08:02:59;;;;;;;16.55;8.70;;;3.10;70.90;;;;;;2263826;55;21006;-66
2024/01/19 08:05:25;;;;;;;18.65;9.30;;;3.20;71.00;;;;;;2495088;54;20994;-66
2024/01/19 08:07:52;;;;;;;21.37;10.60;;;3.20;71.00;;;;;;2264397;55;20998;-66
2024/01/19 08:10:19;;;;;;;19.40;9.65;;;3.20;70.90;;;;;;2264980;55;21277;-66
2024/01/19 08:12:46;;;;;;;19.80;10.30;;;3.20;71.00;;;;;;2264241;55;20932;-65
2024/01/19 08:15:12;;;;;;;19.75;10.35;;;3.30;71.00;;;;;;2264691;55;21009;-65
2024/01/19 08:17:38;;;;;;;18.77;10.23;;;3.30;71.10;;;;;;2264037;55;21025;-66
2024/01/19 08:20:06;;;;;;;18.17;9.48;;;3.30;71.10;;;;;;2494595;54;20954;-67
2024/01/19 08:22:34;;;;;;;18.30;9.93;;;3.30;71.10;;;;;;2265182;55;21034;-66
2024/01/19 08:25:00;;;;;;;20.12;10.55;;;3.40;71.10;;;;;;2263735;55;21215;-65
2024/01/19 08:27:27;;;;;;;18.10;10.38;;;3.40;71.10;;;;;;2265130;55;20978;-66
2024/01/19 08:29:53;;;;;;;18.37;10.18;;;3.40;71.10;;;;;;2264238;55;21797;-66
2024/01/19 08:32:20;;;;;;;22.33;11.05;;;3.40;71.10;;;;;;2265218;55;21066;-66
2024/01/19 08:34:46;;;;;;;20.30;11.20;;;3.50;71.20;;;;;;2264918;55;20958;-66
2024/01/19 08:37:13;;;;;;;20.55;10.80;;;3.50;71.20;;;;;;2264950;55;21058;-66
2024/01/19 08:39:39;;;;;;;16.02;8.40;;;3.50;71.20;;;;;;2264517;55;20962;-66
2024/01/19 08:42:06;;;;;;;19.17;9.93;;;3.60;71.30;;;;;;2264653;55;21030;-66
2024/01/19 08:44:32;;;;;;;16.70;9.13;;;3.60;71.30;;;;;;2494695;54;21025;-66
2024/01/19 08:46:59;;;;;;;18.08;9.77;;;3.60;71.20;;;;;;2493005;54;21427;-66
2024/01/19 08:49:25;;;;;;;19.12;10.13;;;3.60;71.10;;;;;;2265304;55;21007;-66
2024/01/19 08:51:53;;;;;;;16.65;9.27;;;3.60;71.20;;;;;;2493234;54;20939;-66
2024/01/19 08:54:22;;;;;;;19.80;10.82;;;3.70;72.00;;;;;;2264890;55;20922;-66
2024/01/19 08:56:48;;;;;;;20.52;10.05;;;3.70;71.30;;;;;;2264236;55;21061;-66
2024/01/19 08:59:18;;;;;;;19.33;9.80;;;3.70;71.30;;;;;;2265313;55;21661;-66
2024/01/19 09:01:46;;;;;;;19.33;9.48;;;3.70;71.30;;;;;;2266303;55;20999;-66
2024/01/19 09:04:12;;;;;;;19.75;9.40;;;3.80;71.50;;;;;;2254964;55;20966;-66
2024/01/19 09:06:39;;;;;;;14.77;8.00;;;3.80;71.50;;;;;;2265281;55;20958;-67
2024/01/19 09:09:08;;;;;;;15.38;7.95;;;3.90;71.60;;;;;;2264563;55;21607;-66
2024/01/19 09:11:35;;;;;;;16.35;7.57;;;3.90;71.60;;;;;;2492825;54;20954;-66
2024/01/19 09:14:04;;;;;;;17.27;8.90;;;3.90;71.60;;;;;;2492673;54;20987;-66
2024/01/19 09:16:33;;;;;;;15.55;9.13;;;3.90;72.20;;;;;;2264630;55;20939;-66
2024/01/19 09:19:00;;;;;;;16.70;7.97;;;4.00;71.50;;;;;;2263464;55;20983;-66
2024/01/19 09:21:27;;;;;;;12.77;6.95;;;4.00;71.40;;;;;;2266645;55;20962;-66
2024/01/19 09:23:53;;;;;;;13.80;7.28;;;4.00;71.30;;;;;;2493443;54;20926;-66
2024/01/19 09:26:20;;;;;;;15.43;7.25;;;4.00;71.20;;;;;;2264696;55;20978;-66
2024/01/19 09:28:49;;;;;;;13.40;6.78;;;4.10;71.20;;;;;;2267062;55;20970;-66
2024/01/19 09:31:15;;;;;;;15.02;7.53;;;4.10;71.20;;;;;;2263635;56;21045;-66
2024/01/19 09:33:42;;;;;;;11.12;6.32;;;4.10;71.20;;;;;;2251790;55;20966;-66
2024/01/19 09:36:13;;;;;;;10.80;5.87;;;4.00;71.40;;;;;;2264536;55;21015;-66
2024/01/19 09:38:42;;;;;;;12.43;6.40;;;4.10;72.00;;;;;;2493578;54;20963;-67
2024/01/19 09:41:27;;;;;;;12.80;6.82;;;4.20;71.40;;;;;;2264463;55;20938;-66
2024/01/19 09:43:57;;;;;;;14.18;7.12;;;4.20;71.40;;;;;;2263632;55;21039;-66
2024/01/19 09:46:29;;;;;;;14.55;7.62;;;4.20;71.30;;;;;;2264769;55;20990;-66
2024/01/19 09:49:16;;;;;;;12.82;7.00;;;4.20;71.40;;;;;;2263825;55;21038;-66
2024/01/19 09:52:02;;;;;;;14.77;7.75;;;4.20;71.40;;;;;;2263849;55;21014;-66
2024/01/19 09:54:34;;;;;;;14.02;6.97;;;4.30;71.40;;;;;;2493606;54;21059;-67
2024/01/19 09:57:01;;;;;;;13.70;7.15;;;4.30;71.70;;;;;;2235422;57;21038;-66
2024/01/19 09:59:33;;;;;;;12.23;6.10;;;4.40;71.80;;;;;;2265309;55;21069;-67
2024/01/19 10:01:59;;;;;;;10.73;5.85;;;4.40;71.90;;;;;;2256937;55;20997;-66
2024/01/19 10:04:26;;;;;;;10.90;5.93;;;4.40;71.80;;;;;;2493576;54;20951;-67
2024/01/19 10:06:56;;;;;;;10.80;5.85;;;4.50;71.90;;;;;;2255520;56;20996;-67
2024/01/19 10:09:23;;;;;;;9.93;5.45;;;4.50;71.80;;;;;;2482350;54;20952;-67
2024/01/19 10:11:51;;;;;;;9.02;4.78;;;4.50;71.70;;;;;;2263316;55;20958;-67
2024/01/19 10:14:20;;;;;;;12.45;6.00;;;4.50;71.60;;;;;;2263979;55;20954;-67
2024/01/19 10:16:50;;;;;;;10.77;4.87;;;4.50;71.50;;;;;;2262608;55;20954;-67
2024/01/19 10:19:20;;;;;;;8.10;4.20;;;4.60;71.40;;;;;;2264640;55;21457;-66
2024/01/19 10:21:52;;;;;;;10.00;5.40;;;4.60;71.40;;;;;;2263734;55;21102;-67
2024/01/19 10:24:19;;;;;;;8.15;4.30;;;4.60;71.20;;;;;;2264133;55;21751;-68
2024/01/19 10:26:52;;;;;;;9.57;4.53;;;4.60;71.20;;;;;;2257499;55;21014;-68
2024/01/19 10:29:20;;;;;;;10.32;5.25;;;4.70;71.10;;;;;;2264715;55;21297;-67
2024/01/19 10:31:51;;;;;;;10.25;5.68;;;4.70;71.10;;;;;;2264357;55;20978;-67
2024/01/19 10:34:26;;;;;;;10.27;5.12;;;4.70;71.00;;;;;;2264793;55;21593;-67
2024/01/19 10:36:52;;;;;;;10.30;5.28;;;4.70;71.00;;;;;;2265237;55;21459;-67
2024/01/19 10:39:23;;;;;;;10.13;5.60;;;4.70;70.90;;;;;;2265221;55;21470;-68
2024/01/19 10:41:50;;;;;;;10.70;5.57;;;4.70;70.80;;;;;;2263777;55;21053;-68
2024/01/19 10:44:26;;;;;;;11.68;5.70;;;4.70;70.80;;;;;;2257758;55;21737;-67
2024/01/19 10:46:56;;;;;;;10.23;5.32;;;4.70;70.60;;;;;;2263965;55;21888;-67
2024/01/19 10:49:23;;;;;;;9.55;5.18;;;4.70;70.50;;;;;;2264804;55;21014;-67
2024/01/19 10:51:49;;;;;;;10.10;5.22;;;4.70;70.40;;;;;;2493402;54;21318;-67
2024/01/19 10:54:25;;;;;;;9.77;4.95;;;4.70;70.30;;;;;;2494000;54;21105;-66
2024/01/19 10:57:04;;;;;;;10.57;4.82;;;4.70;70.20;;;;;;2264251;55;20954;-67
2024/01/19 10:59:31;;;;;;;9.43;5.05;;;4.70;70.00;;;;;;2265124;55;20966;-67
2024/01/19 11:02:03;;;;;;;9.98;4.87;;;4.70;70.10;;;;;;2263809;55;21414;-68
2024/01/19 11:04:29;;;;;;;9.73;5.45;;;4.60;70.00;;;;;;2494884;54;20981;-67
2024/01/19 11:06:56;;;;;;;9.20;4.30;;;4.70;70.10;;;;;;2263758;55;21090;-67
2024/01/19 11:09:22;;;;;;;11.85;5.47;;;4.70;70.10;;;;;;2265175;55;20966;-67
2024/01/19 11:11:54;;;;;;;10.38;5.18;;;4.60;70.00;;;;;;2264280;55;20970;-68
2024/01/19 11:14:27;;;;;;;13.48;6.00;;;4.60;69.90;;;;;;2494644;54;21317;-67
2024/01/19 11:16:54;;;;;;;12.35;6.65;;;4.60;69.90;;;;;;2493030;54;20998;-66
2024/01/19 11:19:21;;;;;;;12.68;6.55;;;4.60;70.00;;;;;;2494175;54;21002;-67
2024/01/19 11:21:47;;;;;;;10.80;5.57;;;4.60;70.00;;;;;;2264594;55;21022;-67
2024/01/19 11:24:16;;;;;;;10.50;5.82;;;4.60;70.00;;;;;;2494447;54;20955;-66
2024/01/19 11:27:04;;;;;;;11.32;5.43;;;4.60;70.20;;;;;;2264859;55;21621;-67
2024/01/19 11:29:36;;;;;;;9.20;5.12;;;4.60;70.40;;;;;;2264884;55;20969;-67
2024/01/19 11:32:04;;;;;;;11.85;6.12;;;4.60;70.70;;;;;;2494028;54;21018;-67
2024/01/19 11:34:45;;;;;;;10.40;5.40;;;4.60;70.80;;;;;;2495156;54;20958;-68
2024/01/19 11:37:57;;;;;;;10.77;6.05;;;4.60;70.70;;;;;;2262546;55;20966;-68
2024/01/19 11:40:47;;;;;;;9.18;5.15;;;4.60;70.50;;;;;;2265356;55;20982;-67
2024/01/19 11:43:41;;;;;;;9.40;5.00;;;4.70;70.60;;;;;;2495259;54;20982;-67
2024/01/19 11:46:08;;;;;;;11.32;5.68;;;4.60;70.50;;;;;;2494434;54;20983;-68
2024/01/19 11:48:44;;;;;;;10.45;5.57;;;4.60;70.90;;;;;;2265182;55;21495;-67
2024/01/19 11:51:33;;;;;;;10.50;5.87;;;4.70;70.90;;;;;;2481581;55;20972;-68
2024/01/19 11:54:02;;;;;;;12.25;5.80;;;4.70;70.60;;;;;;2493964;54;20935;-68
2024/01/19 11:56:28;;;;;;;11.55;5.95;;;4.70;70.80;;;;;;2494812;54;20955;-68
2024/01/19 11:58:55;;;;;;;11.68;6.15;;;4.70;70.80;;;;;;2263923;55;20992;-68
2024/01/19 12:01:22;;;;;;;11.45;6.60;;;4.70;70.70;;;;;;2485785;54;21006;-68
2024/01/19 12:03:57;;;;;;;14.07;6.12;;;4.70;70.70;;;;;;2265304;55;21285;-67
2024/01/19 12:06:24;;;;;;;11.73;7.05;;;4.70;70.60;;;;;;2495084;54;20954;-68
2024/01/19 12:09:05;;;;;;;12.75;6.55;;;4.70;70.80;;;;;;2261652;56;20937;-67
2024/01/19 12:11:32;;;;;;;12.05;6.12;;;4.70;70.60;;;;;;2263038;55;20954;-67
2024/01/19 12:14:03;;;;;;;10.95;6.18;;;4.70;71.40;;;;;;2263567;55;21022;-67
2024/01/19 12:16:31;;;;;;;11.75;6.30;;;4.70;70.60;;;;;;2495281;54;20966;-68
2024/01/19 12:19:01;;;;;;;11.23;6.07;;;4.70;70.50;;;;;;2493923;54;21014;-69
2024/01/19 12:21:28;;;;;;;11.65;6.37;;;4.70;70.50;;;;;;2265437;55;26200;-68
2024/01/19 12:23:56;;;;;;;14.05;6.22;;;4.70;70.60;;;;;;2493841;54;21006;-68
2024/01/19 12:26:22;;;;;;;11.82;5.70;;;4.70;70.60;;;;;;2261695;55;21442;-66
2024/01/19 12:28:51;;;;;;;11.68;5.78;;;4.70;70.70;;;;;;2488450;54;20995;-67
2024/01/19 12:31:27;;;;;;;10.63;5.60;;;4.80;70.80;;;;;;2255013;56;21304;-67
2024/01/19 12:33:53;;;;;;;10.43;5.60;;;4.70;70.80;;;;;;2494678;54;20998;-68
2024/01/19 12:36:26;;;;;;;9.35;5.32;;;4.80;71.20;;;;;;2268522;55;21774;-67
2024/01/19 12:39:03;;;;;;;10.60;6.60;;;4.80;71.60;;;;;;2482253;54;20947;-67
2024/01/19 12:41:30;;;;;;;11.18;5.93;;;4.80;71.60;;;;;;2256461;55;20990;-67
2024/01/19 12:43:59;;;;;;;11.65;6.32;;;4.90;72.10;;;;;;2264707;55;20966;-67
2024/01/19 12:46:25;;;;;;;9.73;5.65;;;4.90;72.10;;;;;;2494388;54;21285;-67
2024/01/19 12:49:02;;;;;;;12.55;6.12;;;5.00;72.40;;;;;;2494056;54;20963;-67